Time;durP1;ratioP1;P1;durP2;ratioP2;P2;SDS_P1;SDS_P2;PMS_P1;PMS_P2;Temp;Humidity;BMP_temperature;BMP_pressure;BME280_temperature;BME280_humidity;BME280_pressure;Samples;Min_cycle;Max_cycle;Signal;HPM_P1;HPM_P2
2022/07/11 00:00:30;;;;;;;5.80;2.20;;;;;;;10.58;87.31;100479.16;84777;1325;22618;-69
2022/07/11 00:02:54;;;;;;;4.80;2.60;;;;;;;10.60;87.14;100474.59;84763;1327;22652;-71
2022/07/11 00:05:03;;;;;;;2.50;2.10;;;;;;;10.60;87.33;100476.14;84759;1321;22742;-70
2022/07/11 00:07:12;;;;;;;4.30;2.00;;;;;;;10.59;87.22;100474.43;84811;1323;24387;-70
2022/07/11 00:09:21;;;;;;;3.70;2.00;;;;;;;10.57;87.29;100473.08;84783;1325;22577;-71
2022/07/11 00:11:29;;;;;;;3.20;1.70;;;;;;;10.57;87.25;100473.29;84786;1327;23940;-71
2022/07/11 00:13:38;;;;;;;2.10;1.70;;;;;;;10.55;87.12;100471.25;84794;1326;23876;-70
2022/07/11 00:15:47;;;;;;;3.60;2.40;;;;;;;10.54;87.28;100471.12;84786;1326;22597;-70
2022/07/11 00:17:57;;;;;;;2.90;2.10;;;;;;;10.53;87.14;100470.28;84816;1325;22583;-70
2022/07/11 00:20:06;;;;;;;3.20;2.20;;;;;;;10.51;86.87;100474.91;84789;1327;22668;-70
2022/07/11 00:22:15;;;;;;;5.30;2.20;;;;;;;10.46;86.85;100471.77;84810;1325;22582;-70
2022/07/11 00:24:29;;;;;;;1.80;1.60;;;;;;;10.40;86.70;100469.37;84770;1326;22704;-70
2022/07/11 00:26:40;;;;;;;1.70;1.60;;;;;;;10.37;86.88;100467.91;84759;1326;22579;-70
2022/07/11 00:28:49;;;;;;;2.10;1.60;;;;;;;10.33;86.97;100469.45;84803;1326;23967;-70
2022/07/11 00:30:57;;;;;;;1.50;1.40;;;;;;;10.29;86.80;100468.89;84782;1327;22588;-70
2022/07/11 00:33:06;;;;;;;2.30;1.70;;;;;;;10.25;87.11;100468.67;84785;1323;23274;-71
2022/07/11 00:35:15;;;;;;;3.50;1.70;;;;;;;10.24;87.38;100470.45;84793;1321;22856;-70
2022/07/11 00:37:23;;;;;;;4.00;1.90;;;;;;;10.23;87.30;100469.77;84794;1325;23914;-70
2022/07/11 00:39:32;;;;;;;2.30;1.80;;;;;;;10.19;87.07;100467.83;84800;1325;24255;-70
2022/07/11 00:41:40;;;;;;;2.20;1.40;;;;;;;10.13;86.98;100465.05;84768;1326;23166;-70
2022/07/11 00:43:55;;;;;;;1.80;1.70;;;;;;;10.09;87.00;100465.37;84803;1326;22587;-70
2022/07/11 00:46:04;;;;;;;3.00;1.60;;;;;;;10.05;87.00;100460.28;84792;1326;23157;-71
2022/07/11 00:48:12;;;;;;;3.40;1.50;;;;;;;10.00;87.08;100458.52;84788;1322;24193;-70
2022/07/11 00:50:21;;;;;;;2.30;1.70;;;;;;;9.96;87.15;100457.27;84793;1328;25552;-71
2022/07/11 00:52:29;;;;;;;1.90;1.70;;;;;;;9.95;87.54;100460.80;84759;1327;22585;-70
2022/07/11 00:54:38;;;;;;;4.10;1.50;;;;;;;9.95;87.68;100456.79;84790;1325;22607;-70
2022/07/11 00:56:46;;;;;;;3.40;1.40;;;;;;;9.95;87.67;100457.83;84784;1324;25598;-70
2022/07/11 00:58:55;;;;;;;6.30;2.00;;;;;;;9.94;87.81;100460.98;84784;1323;22582;-70
2022/07/11 01:01:04;;;;;;;2.80;2.30;;;;;;;9.94;87.86;100463.25;84799;1325;22854;-70
2022/07/11 01:03:12;;;;;;;3.50;1.70;;;;;;;9.93;87.80;100462.27;84801;1326;24305;-70
2022/07/11 01:05:21;;;;;;;3.90;2.00;;;;;;;9.92;87.91;100459.00;84814;1327;22579;-70
2022/07/11 01:07:30;;;;;;;3.10;1.60;;;;;;;9.93;88.28;100454.77;84791;1327;22582;-70
2022/07/11 01:09:38;;;;;;;4.60;1.50;;;;;;;9.91;88.02;100451.70;84818;1328;23842;-70
2022/07/11 01:11:47;;;;;;;4.10;2.00;;;;;;;9.89;88.01;100457.34;84757;1327;22707;-70
2022/07/11 01:13:56;;;;;;;2.20;1.70;;;;;;;9.87;88.06;100455.52;84810;1322;23056;-70
2022/07/11 01:16:18;;;;;;;3.20;1.60;;;;;;;9.85;88.14;100459.56;84768;1329;22608;-70
2022/07/11 01:18:28;;;;;;;5.40;1.90;;;;;;;9.84;87.95;100456.45;84780;1327;22586;-70
2022/07/11 01:20:37;;;;;;;2.40;1.30;;;;;;;9.82;88.00;100458.79;83644;1326;1560680;-71
2022/07/11 01:22:50;;;;;;;5.10;2.50;;;;;;;9.80;88.30;100460.77;84779;1325;22640;-70
2022/07/11 01:24:58;;;;;;;2.00;1.80;;;;;;;9.79;88.30;100459.05;84725;1326;25431;-70
2022/07/11 01:27:08;;;;;;;4.10;1.60;;;;;;;9.78;88.27;100460.64;84796;1326;22580;-70
2022/07/11 01:29:17;;;;;;;8.00;1.30;;;;;;;9.77;88.44;100456.16;84762;1326;22600;-71
2022/07/11 01:31:26;;;;;;;9.70;2.20;;;;;;;9.74;88.22;100452.42;84814;1327;22616;-71
2022/07/11 01:33:37;;;;;;;4.90;2.10;;;;;;;9.72;88.49;100447.44;84791;1329;23642;-69
2022/07/11 01:35:45;;;;;;;3.90;1.40;;;;;;;9.70;88.33;100451.33;84781;1326;23898;-71
2022/07/11 01:37:54;;;;;;;3.30;1.70;;;;;;;9.70;88.72;100448.90;84781;1325;25425;-70
2022/07/11 01:40:03;;;;;;;4.90;1.40;;;;;;;9.69;88.52;100443.02;84811;1325;22625;-69
2022/07/11 01:42:12;;;;;;;2.20;1.50;;;;;;;9.67;88.54;100439.27;84772;1326;23876;-70
2022/07/11 01:44:20;;;;;;;3.60;1.60;;;;;;;9.68;88.80;100436.61;84802;1322;22921;-70
2022/07/11 01:46:29;;;;;;;2.70;1.30;;;;;;;9.67;88.67;100435.08;84795;1323;25436;-70
2022/07/11 01:48:38;;;;;;;3.50;1.50;;;;;;;9.66;88.68;100439.30;84771;1327;22611;-70
2022/07/11 01:50:46;;;;;;;1.70;1.50;;;;;;;9.65;88.84;100435.84;84793;1326;24254;-70
2022/07/11 01:52:55;;;;;;;2.40;1.90;;;;;;;9.65;89.04;100436.54;84792;1327;22574;-69
2022/07/11 01:55:08;;;;;;;7.20;1.80;;;;;;;9.66;89.25;100439.12;84730;1326;24282;-70
2022/07/11 01:57:17;;;;;;;2.60;1.60;;;;;;;9.66;89.22;100439.13;84726;1327;22594;-71
2022/07/11 01:59:25;;;;;;;3.50;1.60;;;;;;;9.67;89.39;100437.50;84800;1325;22580;-70
2022/07/11 02:01:34;;;;;;;5.40;2.00;;;;;;;9.70;89.55;100438.11;84770;1325;25493;-70
2022/07/11 02:03:43;;;;;;;2.60;1.80;;;;;;;9.71;89.53;100433.56;84784;1327;25472;-69
2022/07/11 02:05:51;;;;;;;2.40;2.00;;;;;;;9.70;89.35;100426.60;84768;1327;22671;-70
2022/07/11 02:08:12;;;;;;;3.40;2.00;;;;;;;9.71;89.51;100429.04;84772;1327;22682;-70
2022/07/11 02:10:21;;;;;;;2.80;1.90;;;;;;;9.74;89.94;100434.48;84789;1328;23911;-70
2022/07/11 02:12:29;;;;;;;5.50;2.10;;;;;;;9.79;90.19;100438.68;84782;1326;22585;-71
2022/07/11 02:14:38;;;;;;;2.80;2.20;;;;;;;9.80;89.89;100436.73;84758;1325;22586;-71
2022/07/11 02:16:46;;;;;;;2.80;1.80;;;;;;;9.81;89.85;100434.59;84776;1325;22589;-70
2022/07/11 02:18:54;;;;;;;3.00;2.00;;;;;;;9.81;89.95;100434.24;84766;1325;25542;-70
2022/07/11 02:21:02;;;;;;;3.70;2.10;;;;;;;9.82;89.78;100434.59;84760;1326;24264;-70
2022/07/11 02:23:13;;;;;;;5.30;2.20;;;;;;;9.79;89.52;100437.44;84767;1326;22593;-71
2022/07/11 02:25:25;;;;;;;6.80;2.80;;;;;;;9.79;89.79;100438.50;84767;1326;25960;-69
2022/07/11 02:27:35;;;;;;;9.70;2.50;;;;;;;9.79;89.88;100434.48;84771;1326;22583;-70
2022/07/11 02:29:44;;;;;;;5.90;2.00;;;;;;;9.80;89.79;100440.55;84807;1327;22574;-70
2022/07/11 02:31:56;;;;;;;3.00;2.20;;;;;;;9.80;89.96;100443.71;84751;1329;25444;-70
2022/07/11 02:34:05;;;;;;;5.60;3.00;;;;;;;9.78;89.75;100447.59;84816;1326;23972;-69
2022/07/11 02:36:14;;;;;;;4.90;2.40;;;;;;;9.77;89.78;100449.21;84756;1326;25278;-70
2022/07/11 02:38:23;;;;;;;2.70;1.70;;;;;;;9.75;89.61;100451.19;84799;1325;22597;-71
2022/07/11 02:40:32;;;;;;;5.90;2.10;;;;;;;9.73;89.76;100447.58;84792;1326;22610;-70
2022/07/11 02:42:40;;;;;;;5.30;2.10;;;;;;;9.74;89.88;100447.90;84763;1327;23879;-71
2022/07/11 02:44:49;;;;;;;2.90;1.90;;;;;;;9.74;90.11;100449.29;84824;1325;22588;-70
2022/07/11 02:46:58;;;;;;;8.10;2.20;;;;;;;9.76;90.15;100445.94;84779;1325;25356;-71
2022/07/11 02:49:07;;;;;;;4.00;1.70;;;;;;;9.77;90.11;100444.34;84833;1325;23916;-70
2022/07/11 02:51:16;;;;;;;9.30;1.90;;;;;;;9.79;90.28;100445.11;84757;1325;25639;-70
2022/07/11 02:53:25;;;;;;;2.80;1.80;;;;;;;9.84;90.57;100440.94;84751;1326;23000;-71
2022/07/11 02:55:35;;;;;;;7.60;2.60;;;;;;;9.90;90.77;100447.20;84796;1326;22577;-70
2022/07/11 02:57:44;;;;;;;4.60;2.40;;;;;;;9.95;90.88;100445.30;84819;1327;22584;-70
2022/07/11 02:59:53;;;;;;;4.00;2.00;;;;;;;9.99;90.88;100446.34;84796;1325;22603;-70
2022/07/11 03:02:04;;;;;;;6.40;2.00;;;;;;;10.05;90.90;100446.54;84776;1325;25255;-71
2022/07/11 03:04:13;;;;;;;7.10;2.50;;;;;;;10.11;90.99;100450.31;84815;1328;22575;-72
2022/07/11 03:06:22;;;;;;;5.20;2.50;;;;;;;10.17;91.09;100450.79;84777;1326;23921;-71
2022/07/11 03:08:32;;;;;;;2.90;2.20;;;;;;;10.23;91.19;100453.04;84784;1326;22590;-70
2022/07/11 03:10:39;;;;;;;;;;;;;;;10.31;91.35;100455.56;84800;1322;22678;-71
2022/07/11 03:12:49;;;;;;;4.50;2.20;;;;;;;10.38;91.37;100459.36;84770;1321;22599;-71
2022/07/11 03:14:57;;;;;;;5.70;2.70;;;;;;;10.44;91.45;100458.77;84787;1326;22593;-70
2022/07/11 03:17:07;;;;;;;5.90;2.70;;;;;;;10.49;91.35;100461.02;84799;1327;25385;-69
2022/07/11 03:19:15;;;;;;;7.90;3.10;;;;;;;10.51;91.18;100457.30;84849;1326;22599;-71
2022/07/11 03:21:27;;;;;;;6.90;2.20;;;;;;;10.55;91.42;100460.64;84761;1327;23895;-70
2022/07/11 03:23:38;;;;;;;3.20;2.20;;;;;;;10.59;91.07;100463.62;84784;1325;22637;-69
2022/07/11 03:25:47;;;;;;;2.90;2.30;;;;;;;10.63;91.16;100459.27;84800;1321;22606;-70
2022/07/11 03:27:55;;;;;;;4.00;2.40;;;;;;;10.68;91.38;100460.31;84771;1326;22817;-69
2022/07/11 03:30:10;;;;;;;7.70;3.20;;;;;;;10.72;91.48;100465.39;84789;1326;22598;-71
2022/07/11 03:32:21;;;;;;;4.30;2.50;;;;;;;10.77;91.40;100463.12;84785;1326;22712;-70
2022/07/11 03:34:29;;;;;;;6.40;2.70;;;;;;;10.81;91.24;100464.88;84801;1326;25291;-69
2022/07/11 03:36:38;;;;;;;3.80;3.20;;;;;;;10.86;91.20;100465.91;84803;1321;22609;-70
2022/07/11 03:38:47;;;;;;;6.00;2.60;;;;;;;10.93;91.17;100462.54;84822;1326;23876;-71
2022/07/11 03:41:02;;;;;;;5.00;2.60;;;;;;;10.98;91.42;100459.71;84815;1327;22598;-71
2022/07/11 03:43:15;;;;;;;6.70;2.20;;;;;;;11.17;91.69;100460.02;84835;1323;22600;-70
2022/07/11 03:45:24;;;;;;;3.90;2.70;;;;;;;11.80;92.28;100455.93;84830;1326;22854;-71
2022/07/11 03:47:37;;;;;;;8.70;2.60;;;;;;;12.38;91.56;100453.48;84765;1327;23834;-71
2022/07/11 03:49:47;;;;;;;3.70;2.30;;;;;;;12.81;91.27;100445.77;84770;1327;25269;-70
2022/07/11 03:51:57;;;;;;;4.40;2.30;;;;;;;13.08;89.80;100444.31;84801;1325;22600;-71
2022/07/11 03:54:06;;;;;;;5.40;2.20;;;;;;;13.05;88.58;100443.73;84856;1322;22609;-71
2022/07/11 03:56:18;;;;;;;7.80;2.50;;;;;;;12.97;87.55;100444.30;84768;1322;22815;-70
2022/07/11 03:58:31;;;;;;;3.70;2.30;;;;;;;12.87;87.00;100445.97;84785;1325;25578;-70
2022/07/11 04:00:39;;;;;;;6.70;2.30;;;;;;;12.81;86.98;100443.27;84792;1324;24392;-70
2022/07/11 04:02:51;;;;;;;4.70;2.70;;;;;;;12.79;86.66;100444.09;84806;1325;22829;-70
2022/07/11 04:04:59;;;;;;;6.00;2.20;;;;;;;12.76;86.74;100443.33;84812;1323;22811;-71
2022/07/11 04:07:10;;;;;;;5.40;2.20;;;;;;;12.75;86.87;100441.80;84805;1327;25295;-71
2022/07/11 04:09:20;;;;;;;3.90;2.90;;;;;;;12.76;86.77;100439.16;84819;1326;25298;-70
2022/07/11 04:11:29;;;;;;;7.00;2.70;;;;;;;12.79;86.90;100436.04;84816;1326;22889;-70
2022/07/11 04:13:37;;;;;;;5.50;2.90;;;;;;;12.82;87.01;100426.25;84815;1327;24380;-70
2022/07/11 04:15:51;;;;;;;5.10;3.20;;;;;;;12.87;86.91;100423.60;84804;1326;24255;-71
2022/07/11 04:18:00;;;;;;;3.20;2.40;;;;;;;12.89;86.77;100416.45;84816;1327;22591;-70
2022/07/11 04:20:11;;;;;;;4.00;2.40;;;;;;;12.93;87.03;100404.21;84816;1327;23972;-71
2022/07/11 04:22:20;;;;;;;6.00;3.10;;;;;;;12.98;86.95;100407.33;84819;1317;22587;-70
2022/07/11 04:24:28;;;;;;;4.50;2.80;;;;;;;13.01;86.95;100406.65;84812;1327;22613;-70
2022/07/11 04:26:40;;;;;;;4.30;2.80;;;;;;;13.01;86.72;100402.77;84783;1326;25429;-71
2022/07/11 04:28:48;;;;;;;7.90;2.80;;;;;;;13.02;86.72;100400.45;84819;1327;23898;-71
2022/07/11 04:30:57;;;;;;;3.30;2.80;;;;;;;13.03;86.60;100403.40;84818;1326;22568;-71
2022/07/11 04:33:07;;;;;;;5.90;3.20;;;;;;;13.03;86.62;100407.23;84792;1323;22860;-71
2022/07/11 04:35:17;;;;;;;7.00;2.60;;;;;;;13.03;86.61;100415.16;84805;1326;24515;-68
2022/07/11 04:37:26;;;;;;;6.00;3.60;;;;;;;13.04;86.88;100418.60;84786;1325;22582;-71
2022/07/11 04:39:35;;;;;;;7.20;2.90;;;;;;;13.06;87.02;100414.81;84820;1326;22584;-71
2022/07/11 04:41:43;;;;;;;7.00;2.30;;;;;;;13.09;86.87;100417.95;84787;1327;22606;-71
2022/07/11 04:43:52;;;;;;;7.80;3.70;;;;;;;13.11;86.92;100419.10;84722;1327;22680;-71
2022/07/11 04:46:05;;;;;;;8.60;3.20;;;;;;;13.09;86.61;100423.23;84791;1327;24081;-71
2022/07/11 04:48:14;;;;;;;7.60;2.70;;;;;;;13.09;86.84;100428.48;84779;1321;25583;-70
2022/07/11 04:50:23;;;;;;;4.20;2.60;;;;;;;13.10;87.18;100434.05;84810;1327;22593;-70
2022/07/11 04:52:32;;;;;;;6.40;2.90;;;;;;;13.11;87.00;100434.70;84804;1328;23984;-71
2022/07/11 04:54:41;;;;;;;7.40;3.10;;;;;;;13.13;87.04;100432.83;84813;1327;23780;-70
2022/07/11 04:56:51;;;;;;;4.30;2.30;;;;;;;13.15;87.22;100432.95;84826;1325;25279;-70
2022/07/11 04:59:00;;;;;;;4.40;2.70;;;;;;;13.15;87.11;100440.27;84806;1327;22729;-71
2022/07/11 05:01:09;;;;;;;5.10;2.50;;;;;;;13.14;87.05;100443.83;84804;1327;23927;-71
2022/07/11 05:03:19;;;;;;;15.40;3.20;;;;;;;13.11;86.60;100444.86;84827;1327;22586;-71
2022/07/11 05:05:27;;;;;;;;;;;;;;;13.06;86.35;100440.56;84774;1326;25942;-70
2022/07/11 05:07:36;;;;;;;5.40;3.10;;;;;;;13.03;86.94;100441.73;84774;1325;22616;-70
2022/07/11 05:09:45;;;;;;;7.30;3.20;;;;;;;13.05;86.91;100440.94;84776;1326;22667;-70
2022/07/11 05:11:54;;;;;;;6.80;3.20;;;;;;;13.09;87.27;100447.42;84782;1327;22846;-70
2022/07/11 05:14:04;;;;;;;6.70;3.30;;;;;;;13.14;87.70;100451.86;84755;1327;22701;-71
2022/07/11 05:16:13;;;;;;;6.40;3.20;;;;;;;13.20;87.88;100453.55;84787;1327;22575;-70
2022/07/11 05:18:22;;;;;;;4.80;3.20;;;;;;;13.26;87.81;100459.09;84819;1327;22588;-70
2022/07/11 05:20:31;;;;;;;9.10;3.50;;;;;;;13.32;87.71;100458.42;84899;1325;22608;-71
2022/07/11 05:22:40;;;;;;;6.40;3.20;;;;;;;13.35;87.56;100466.39;84805;1327;22836;-71
2022/07/11 05:24:49;;;;;;;8.20;4.90;;;;;;;13.34;87.31;100468.16;84797;1326;22622;-70
2022/07/11 05:26:57;;;;;;;8.60;3.80;;;;;;;13.32;87.15;100466.85;84801;1319;22818;-70
2022/07/11 05:29:06;;;;;;;5.00;3.90;;;;;;;13.31;87.11;100462.50;84844;1325;25441;-71
2022/07/11 05:31:15;;;;;;;12.30;6.50;;;;;;;13.34;87.39;100463.42;84804;1327;23876;-71
2022/07/11 05:33:23;;;;;;;7.70;7.00;;;;;;;13.37;87.37;100460.81;84779;1329;24477;-70
2022/07/11 05:35:35;;;;;;;11.10;6.60;;;;;;;13.43;87.67;100463.14;84819;1322;22635;-68
2022/07/11 05:37:46;;;;;;;6.70;6.10;;;;;;;13.49;87.50;100463.06;84779;1327;22734;-71
2022/07/11 05:39:59;;;;;;;11.90;6.90;;;;;;;13.51;87.36;100462.09;84821;1326;22671;-71
2022/07/11 05:42:09;;;;;;;7.90;5.40;;;;;;;13.55;87.51;100466.30;84789;1325;22580;-71
2022/07/11 05:44:17;;;;;;;;;;;;;;;13.58;87.55;100467.02;84804;1326;22572;-71
2022/07/11 05:46:26;;;;;;;9.00;5.20;;;;;;;13.60;87.55;100464.27;84833;1328;22585;-70
2022/07/11 05:48:35;;;;;;;9.00;5.70;;;;;;;13.65;87.26;100467.86;84820;1329;24085;-71
2022/07/11 05:50:46;;;;;;;11.70;6.10;;;;;;;13.71;87.39;100466.91;84793;1326;22614;-70
2022/07/11 05:52:57;;;;;;;7.10;6.10;;;;;;;13.77;87.46;100465.88;84809;1327;22601;-71
2022/07/11 05:55:07;;;;;;;6.60;5.80;;;;;;;13.81;87.07;100464.63;84812;1326;22586;-71
2022/07/11 05:57:16;;;;;;;14.10;6.00;;;;;;;13.85;86.91;100467.59;84830;1328;24267;-71
2022/07/11 05:59:26;;;;;;;11.00;5.60;;;;;;;13.89;86.96;100470.37;84717;1327;22598;-71
2022/07/11 06:01:35;;;;;;;6.60;5.40;;;;;;;13.95;87.01;100469.55;84827;1326;23184;-71
2022/07/11 06:03:44;;;;;;;11.00;5.70;;;;;;;14.03;87.02;100470.20;84821;1327;22604;-70
2022/07/11 06:05:53;;;;;;;6.10;5.60;;;;;;;14.10;87.03;100469.51;84800;1327;23921;-71
2022/07/11 06:10:28;;;;;;;7.50;4.70;;;;;;;14.11;86.02;100473.79;84804;1329;22614;-71
2022/07/11 06:12:41;;;;;;;8.00;4.70;;;;;;;14.09;85.69;100473.39;84775;1327;22953;-71
2022/07/11 06:14:50;;;;;;;5.40;3.80;;;;;;;14.07;85.41;100474.05;84780;1327;22596;-71
2022/07/11 06:16:59;;;;;;;4.80;4.40;;;;;;;14.03;85.19;100476.70;84799;1319;22646;-71
2022/07/11 06:19:08;;;;;;;6.70;4.20;;;;;;;14.04;85.61;100469.77;84794;1323;25545;-71
2022/07/11 06:21:17;;;;;;;5.70;3.90;;;;;;;14.08;85.70;100468.00;84824;1328;22596;-71
2022/07/11 06:23:26;;;;;;;5.10;3.30;;;;;;;14.12;85.63;100468.66;84794;1323;22543;-71
2022/07/11 06:25:35;;;;;;;7.30;3.20;;;;;;;14.13;85.39;100469.47;84794;1329;24984;-70
2022/07/11 06:27:44;;;;;;;6.10;3.10;;;;;;;14.16;85.55;100471.83;84815;1327;23761;-71
2022/07/11 06:29:52;;;;;;;5.50;2.90;;;;;;;14.15;85.31;100470.81;84795;1326;22828;-71
2022/07/11 06:32:01;;;;;;;8.60;3.10;;;;;;;14.15;85.37;100470.83;84810;1326;22627;-72
2022/07/11 06:34:10;;;;;;;3.40;3.10;;;;;;;14.14;85.14;100473.65;84789;1322;22594;-70
2022/07/11 06:36:19;;;;;;;6.20;3.00;;;;;;;14.12;84.88;100470.44;84804;1328;25443;-70
2022/07/11 06:38:28;;;;;;;8.00;3.50;;;;;;;14.12;84.82;100472.73;84764;1326;22850;-71
2022/07/11 06:40:37;;;;;;;5.20;3.00;;;;;;;14.13;85.00;100475.44;84748;1325;25479;-70
2022/07/11 06:42:45;;;;;;;3.40;2.90;;;;;;;14.16;85.13;100471.77;84795;1325;26547;-71
2022/07/11 06:44:54;;;;;;;5.40;3.30;;;;;;;14.25;85.46;100471.33;84801;1326;22593;-70
2022/07/11 06:47:05;;;;;;;7.50;3.00;;;;;;;14.31;85.33;100469.26;84804;1326;24017;-71
2022/07/11 06:49:14;;;;;;;9.70;3.30;;;;;;;14.35;85.13;100474.88;84824;1327;23852;-71
2022/07/11 06:51:22;;;;;;;5.00;3.10;;;;;;;14.37;84.89;100473.00;84783;1322;22596;-70
2022/07/11 06:53:33;;;;;;;5.40;3.40;;;;;;;14.40;84.80;100476.36;84809;1327;23984;-71
2022/07/11 06:55:42;;;;;;;6.10;3.70;;;;;;;14.49;85.14;100470.32;84771;1325;22596;-71
2022/07/11 06:57:51;;;;;;;11.10;3.70;;;;;;;14.86;87.59;100470.43;84815;1329;22601;-71
2022/07/11 06:59:59;;;;;;;5.10;3.20;;;;;;;16.03;92.18;100468.55;84829;1325;25615;-70
2022/07/11 07:02:08;;;;;;;9.20;4.30;;;;;;;16.95;89.95;100469.66;84795;1326;22655;-72
2022/07/11 07:04:17;;;;;;;3.70;3.20;;;;;;;17.79;88.05;100466.20;84798;1327;23962;-71
2022/07/11 07:06:26;;;;;;;6.70;3.20;;;;;;;18.32;83.57;100464.59;84779;1327;24331;-70
2022/07/11 07:08:35;;;;;;;5.20;3.90;;;;;;;18.38;79.36;100465.94;84758;1325;25439;-69
2022/07/11 07:10:43;;;;;;;4.20;3.70;;;;;;;18.29;77.47;100467.42;84769;1327;22841;-70
2022/07/11 07:12:52;;;;;;;6.00;4.20;;;;;;;18.14;76.23;100466.52;84770;1327;22603;-69
2022/07/11 07:15:02;;;;;;;6.30;4.30;;;;;;;17.94;75.42;100464.48;84798;1327;22586;-70
2022/07/11 07:17:11;;;;;;;9.00;5.10;;;;;;;17.80;75.31;100459.06;84813;1327;22730;-70
2022/07/11 07:19:19;;;;;;;6.70;5.70;;;;;;;17.89;75.66;100462.88;84787;1327;22586;-70
2022/07/11 07:21:28;;;;;;;10.50;6.00;;;;;;;17.90;74.80;100459.31;84786;1326;24247;-70
2022/07/11 07:23:36;;;;;;;7.70;5.50;;;;;;;17.86;74.64;100461.33;84769;1326;25265;-69
2022/07/11 07:25:45;;;;;;;10.20;7.20;;;;;;;18.02;75.38;100460.08;84815;1325;22593;-70
2022/07/11 07:27:54;;;;;;;9.30;5.40;;;;;;;18.66;76.91;100460.77;84809;1324;22585;-70
2022/07/11 07:30:04;;;;;;;9.40;4.90;;;;;;;18.98;74.21;100458.03;84834;1325;25241;-69
2022/07/11 07:32:15;;;;;;;5.00;4.60;;;;;;;19.19;72.93;100458.41;84778;1326;22567;-71
2022/07/11 07:34:24;;;;;;;6.50;4.10;;;;;;;19.55;72.09;100456.30;84785;1327;25429;-69
2022/07/11 07:36:35;;;;;;;7.00;4.40;;;;;;;19.79;70.02;100452.45;84780;1327;22581;-69
2022/07/11 07:38:47;;;;;;;9.00;3.80;;;;;;;19.94;68.37;100452.02;84744;1326;22615;-70
2022/07/11 07:40:59;;;;;;;5.10;4.20;;;;;;;20.06;68.08;100446.63;84770;1326;25434;-69
2022/07/11 07:43:12;;;;;;;5.40;3.40;;;;;;;20.13;67.57;100448.59;84747;1327;22723;-69
2022/07/11 07:45:23;;;;;;;4.70;2.90;;;;;;;20.16;66.74;100447.86;84770;1318;22790;-70
2022/07/11 07:47:35;;;;;;;8.40;3.00;;;;;;;19.99;66.26;100456.39;84813;1329;24241;-70
2022/07/11 07:49:45;;;;;;;6.00;3.00;;;;;;;19.85;66.01;100457.83;84779;1321;22590;-71
2022/07/11 07:51:54;;;;;;;5.40;2.60;;;;;;;19.76;66.00;100455.52;84802;1318;22817;-69
2022/07/11 07:54:07;;;;;;;3.50;2.80;;;;;;;19.68;65.64;100455.39;84796;1325;22585;-70
2022/07/11 07:56:24;;;;;;;3.70;2.40;;;;;;;19.61;65.03;100454.69;84783;1321;22602;-69
2022/07/11 07:58:34;;;;;;;3.90;1.70;;;;;;;19.54;65.26;100454.11;84821;1321;22653;-70
2022/07/11 08:03:11;;;;;;;2.00;1.60;;;;;;;19.40;63.04;100455.66;84782;1327;23034;-70
2022/07/11 08:05:22;;;;;;;2.60;1.80;;;;;;;19.38;63.59;100457.23;84775;1327;22900;-70
2022/07/11 08:07:31;;;;;;;4.40;1.90;;;;;;;19.59;65.46;100451.41;84810;1328;22606;-70
2022/07/11 08:09:42;;;;;;;2.00;1.80;;;;;;;20.01;63.45;100444.60;84815;1322;22586;-69
2022/07/11 08:11:54;;;;;;;3.20;2.10;;;;;;;20.14;63.16;100448.75;84773;1327;25426;-70
2022/07/11 08:14:07;;;;;;;3.10;2.10;;;;;;;20.34;61.45;100443.96;84821;1325;22590;-70
2022/07/11 08:16:16;;;;;;;3.10;1.80;;;;;;;20.42;62.21;100446.23;84775;1326;22625;-71
2022/07/11 08:18:26;;;;;;;4.70;1.80;;;;;;;20.81;60.61;100445.33;84787;1322;25256;-69
2022/07/11 08:20:39;;;;;;;3.20;1.90;;;;;;;21.37;59.93;100439.20;84814;1325;22597;-70
2022/07/11 08:22:47;;;;;;;4.10;1.50;;;;;;;22.34;59.47;100438.13;84761;1325;22580;-70
2022/07/11 08:24:56;;;;;;;2.10;1.30;;;;;;;22.98;57.16;100437.39;84788;1327;22593;-69
2022/07/11 08:27:07;;;;;;;3.60;1.50;;;;;;;22.94;53.51;100441.60;84783;1326;22596;-69
2022/07/11 08:29:15;;;;;;;3.90;1.20;;;;;;;22.94;52.70;100440.86;84795;1326;22633;-71
2022/07/11 08:31:24;;;;;;;1.60;1.00;;;;;;;22.95;52.47;100442.09;84817;1325;22580;-69
2022/07/11 08:33:33;;;;;;;2.20;1.00;;;;;;;22.97;51.37;100441.01;84776;1326;25430;-69
2022/07/11 08:35:48;;;;;;;2.50;1.00;;;;;;;23.28;53.49;100444.66;84768;1325;22617;-69
2022/07/11 08:37:59;;;;;;;3.30;0.80;;;;;;;24.45;53.97;100440.36;84762;1326;22590;-71
2022/07/11 08:40:10;;;;;;;3.60;0.90;;;;;;;25.51;47.82;100434.87;84804;1327;22584;-71
2022/07/11 08:42:21;;;;;;;0.80;0.60;;;;;;;25.69;46.84;100434.73;84795;1327;22851;-72
2022/07/11 08:44:30;;;;;;;2.00;1.10;;;;;;;25.39;46.86;100436.65;84785;1323;25532;-70
2022/07/11 08:46:39;;;;;;;5.50;0.80;;;;;;;24.95;44.30;100444.37;84785;1326;24355;-70
2022/07/11 08:48:48;;;;;;;2.10;0.60;;;;;;;24.14;44.41;100446.37;84775;1326;22580;-71
2022/07/11 08:50:56;;;;;;;0.40;0.40;;;;;;;23.90;46.89;100443.64;84781;1327;23910;-71
2022/07/11 08:53:05;;;;;;;6.90;1.60;;;;;;;24.54;47.32;100434.40;84813;1327;22596;-69
2022/07/11 08:55:17;;;;;;;0.60;0.40;;;;;;;25.29;46.37;100435.88;84780;1326;22579;-70
2022/07/11 08:57:26;;;;;;;1.30;0.50;;;;;;;25.54;43.36;100440.15;84816;1324;23920;-69
2022/07/11 08:59:36;;;;;;;1.10;0.40;;;;;;;25.21;43.27;100445.62;84748;1326;22595;-70
2022/07/11 09:01:47;;;;;;;0.40;0.40;;;;;;;24.81;41.61;100448.76;84780;1329;22588;-70
2022/07/11 09:03:55;;;;;;;1.30;0.30;;;;;;;24.48;42.97;100446.25;84839;1325;22579;-70
2022/07/11 09:06:05;;;;;;;1.80;0.50;;;;;;;24.72;43.77;100446.55;84807;1327;22574;-70
2022/07/11 09:08:14;;;;;;;1.10;0.40;;;;;;;25.40;43.35;100441.06;84798;1325;25501;-71
2022/07/11 09:10:23;;;;;;;0.20;0.20;;;;;;;25.95;42.09;100443.71;84818;1327;24285;-70
2022/07/11 09:12:32;;;;;;;1.10;0.40;;;;;;;26.23;39.26;100440.36;84816;1325;22782;-71
2022/07/11 09:14:40;;;;;;;0.80;0.30;;;;;;;26.28;39.92;100443.05;84815;1327;23930;-71
2022/07/11 09:16:58;;;;;;;1.40;0.30;;;;;;;26.87;41.76;100438.86;84814;1325;24570;-71
2022/07/11 09:19:12;;;;;;;1.80;0.20;;;;;;;27.42;38.33;100440.31;84827;1322;22584;-70
2022/07/11 09:26:14;;;;;;;0.30;0.20;;;;;;;26.31;37.54;100438.64;84827;1326;22584;-72
2022/07/11 09:28:23;;;;;;;0.10;0.10;;;;;;;26.13;37.78;100438.19;84760;1326;22612;-71
2022/07/11 09:30:35;;;;;;;0.30;0.10;;;;;;;25.83;37.41;100441.73;84766;1326;22649;-71
2022/07/11 09:32:54;;;;;;;0.30;0.30;;;;;;;25.38;37.14;100442.98;84818;1325;22606;-70
2022/07/11 09:35:06;;;;;;;0.10;0.10;;;;;;;24.98;37.96;100441.35;84799;1326;22590;-69
2022/07/11 09:37:15;;;;;;;0.10;0.10;;;;;;;24.83;38.39;100439.66;84776;1328;22605;-69
2022/07/11 09:39:28;;;;;;;0.20;0.20;;;;;;;24.74;37.98;100434.80;84760;1327;22571;-69
2022/07/11 09:41:38;;;;;;;0.50;0.20;;;;;;;24.75;39.58;100436.01;84804;1327;25552;-69
2022/07/11 09:43:53;;;;;;;0.40;0.20;;;;;;;24.76;38.16;100429.48;84812;1326;25267;-69
2022/07/11 09:46:10;;;;;;;0.80;0.10;;;;;;;24.57;38.14;100431.27;84777;1325;22833;-70
2022/07/11 09:48:19;;;;;;;0.30;0.10;;;;;;;24.48;39.18;100423.72;84800;1325;22637;-69
2022/07/11 09:50:29;;;;;;;1.60;0.10;;;;;;;24.49;38.88;100423.10;84823;1326;22673;-70
2022/07/11 09:52:38;;;;;;;0.90;0.10;;;;;;;24.41;39.11;100422.45;84811;1325;22679;-69
2022/07/11 09:55:00;;;;;;;1.10;0.30;;;;;;;24.16;38.56;100423.02;84760;1326;25430;-69
2022/07/11 09:57:14;;;;;;;0.40;0.10;;;;;;;23.81;37.64;100422.19;84792;1325;23902;-70
2022/07/11 09:59:28;;;;;;;1.30;0.30;;;;;;;23.51;40.00;100422.29;84813;1325;22616;-70
2022/07/11 10:01:37;;;;;;;0.70;0.20;;;;;;;23.32;40.07;100423.81;84782;1329;22584;-70
2022/07/11 10:03:47;;;;;;;2.10;0.50;;;;;;;23.21;40.07;100432.08;84797;1329;22594;-69
2022/07/11 10:05:56;;;;;;;0.40;0.30;;;;;;;23.03;40.19;100427.44;84804;1327;22569;-70
2022/07/11 10:08:06;;;;;;;0.50;0.30;;;;;;;22.86;41.60;100427.75;84788;1326;22790;-70
2022/07/11 10:10:15;;;;;;;2.00;0.30;;;;;;;22.66;42.01;100426.63;84811;1327;22624;-71
2022/07/11 10:12:27;;;;;;;0.30;0.30;;;;;;;22.48;42.76;100425.56;84844;1328;25437;-70
2022/07/11 10:14:42;;;;;;;0.60;0.30;;;;;;;22.28;43.51;100426.20;84729;1331;22587;-70